Time,TemperatureF,DewpointF,PressureIn,WindDirection,WindDirectionDegrees,WindSpeedMPH,WindSpeedGustMPH,Humidity,HourlyPrecipIn,Conditions,Clouds,dailyrainin,SolarRadiationWatts/m^2,SoftwareType,DateUTC
2013-03-14 00:09:00,29.7,19.4,29.73,West,280,0.0,7.0,65,0.00,,CLR,0.00,0.00,VWS V14.01,2013-03-14 04:09:00,
2013-03-14 00:19:00,29.7,19.4,29.72,West,279,0.0,5.0,65,0.00,,CLR,0.00,0.00,VWS V14.01,2013-03-14 04:19:00,
2013-03-14 00:29:00,29.6,19.6,29.72,West,280,0.0,5.0,66,0.00,,CLR,0.00,0.00,VWS V14.01,2013-03-14 04:29:00,
2013-03-14 00:39:00,29.4,19.5,29.72,West,280,0.0,3.0,66,0.00,,CLR,0.00,0.00,VWS V14.01,2013-03-14 04:39:00,
2013-03-14 00:49:00,29.1,19.5,29.72,West,280,0.0,3.0,67,0.00,,CLR,0.00,0.00,VWS V14.01,2013-03-14 04:49:00,
2013-03-14 00:59:00,29.2,20.0,29.72,WNW,283,2.0,9.0,68,0.00,,CLR,0.00,0.00,VWS V14.01,2013-03-14 04:59:00,
2013-03-14 01:09:00,29.2,20.0,29.72,WNW,284,2.0,7.0,68,0.00,,CLR,0.00,0.00,VWS V14.01,2013-03-14 05:09:00,
2013-03-14 01:19:00,29.0,20.1,29.72,WNW,284,0.0,6.0,69,0.00,,CLR,0.00,0.00,VWS V14.01,2013-03-14 05:19:00,
2013-03-14 01:29:00,28.7,20.2,29.72,West,275,1.0,6.0,70,0.00,,CLR,0.00,0.00,VWS V14.01,2013-03-14 05:29:00,
2013-03-14 01:39:00,28.6,20.4,29.72,West,273,0.0,6.0,71,0.00,,CLR,0.00,0.00,VWS V14.01,2013-03-14 05:39:00,
2013-03-14 01:49:00,28.8,20.9,29.71,West,271,3.0,8.0,72,0.00,,CLR,0.00,0.00,VWS V14.01,2013-03-14 05:49:00,
2013-03-14 01:59:00,28.6,21.1,29.71,West,261,0.0,6.0,73,0.00,,CLR,0.00,0.00,VWS V14.01,2013-03-14 05:59:00,
2013-03-14 02:09:00,28.4,21.2,29.71,West,275,0.0,7.0,74,0.00,,CLR,0.00,0.00,VWS V14.01,2013-03-14 06:09:00,
2013-03-14 02:19:00,28.2,21.3,29.72,West,280,3.0,7.0,75,0.00,,CLR,0.00,0.00,VWS V14.01,2013-03-14 06:19:00,
2013-03-14 02:29:00,28.1,21.2,29.71,West,267,4.0,6.0,75,0.00,,CLR,0.00,0.00,VWS V14.01,2013-03-14 06:29:00,
2013-03-14 02:39:00,28.1,21.5,29.71,West,261,4.0,7.0,76,0.00,,CLR,0.00,0.00,VWS V14.01,2013-03-14 06:39:00,
2013-03-14 02:49:00,28.2,21.6,29.71,WSW,252,4.0,14.0,76,0.00,,CLR,0.00,0.00,VWS V14.01,2013-03-14 06:49:00,
2013-03-14 02:59:00,28.4,21.8,29.71,West,266,5.0,9.0,76,0.00,,CLR,0.00,0.00,VWS V14.01,2013-03-14 06:59:00,
2013-03-14 03:09:00,28.4,21.5,29.71,West,263,4.0,12.0,75,0.00,,CLR,0.00,0.00,VWS V14.01,2013-03-14 07:09:00,
2013-03-14 05:50:00,25.5,16.1,29.71,West,270,5.0,14.0,67,0.00,,CLR,0.00,0.00,VWS V14.01,2013-03-14 09:50:00,
2013-03-14 06:09:00,25.0,15.9,29.72,WSW,252,9.0,12.0,68,0.00,,FEW090,0.00,0.00,VWS V14.01,2013-03-14 10:09:00,
2013-03-14 06:19:00,24.9,15.9,29.71,West,276,5.0,12.0,68,0.00,,FEW090,0.00,0.00,VWS V14.01,2013-03-14 10:19:00,
2013-03-14 06:29:00,24.7,15.7,29.71,WSW,256,6.0,12.0,68,0.00,,FEW090,0.00,0.00,VWS V14.01,2013-03-14 10:29:00,
2013-03-14 06:39:00,24.5,15.5,29.71,WSW,257,2.0,13.0,68,0.00,,FEW090,0.00,0.00,VWS V14.01,2013-03-14 10:39:00,
2013-03-14 06:49:00,24.3,15.6,29.71,West,266,4.0,15.0,69,0.00,,OVC085,0.00,0.00,VWS V14.01,2013-03-14 10:49:00,
2013-03-14 06:59:00,24.1,15.4,29.71,WSW,258,3.0,15.0,69,0.00,,OVC085,0.00,0.00,VWS V14.01,2013-03-14 10:59:00,
2013-03-14 07:09:00,24.0,15.6,29.71,West,277,2.0,11.0,70,0.00,,OVC085,0.00,5.00,VWS V14.01,2013-03-14 11:09:00,
2013-03-14 07:19:00,23.8,15.1,29.71,SW,215,4.0,11.0,69,0.00,,OVC085,0.00,11.00,VWS V14.01,2013-03-14 11:19:00,
2013-03-14 07:29:00,23.7,15.0,29.72,WSW,252,4.0,9.0,69,0.00,,OVC085,0.00,19.00,VWS V14.01,2013-03-14 11:29:00,
2013-03-14 07:39:00,23.8,15.1,29.72,WSW,252,1.0,7.0,69,0.00,,OVC085,0.00,33.00,VWS V14.01,2013-03-14 11:39:00,
2013-03-14 07:49:00,23.9,14.9,29.72,WSW,257,2.0,8.0,68,0.00,,OVC085,0.00,39.00,VWS V14.01,2013-03-14 11:49:00,
2013-03-14 07:59:00,24.0,15.0,29.72,WSW,254,1.0,6.0,68,0.00,,OVC085,0.00,79.00,VWS V14.01,2013-03-14 11:59:00,
2013-03-14 08:09:00,24.2,15.2,29.72,SW,226,0.0,9.0,68,0.00,,OVC085,0.00,121.00,VWS V14.01,2013-03-14 12:09:00,
2013-03-14 08:19:00,24.9,15.5,29.72,WSW,245,0.0,5.0,67,0.00,,OVC085,0.00,130.00,VWS V14.01,2013-03-14 12:19:00,
2013-03-14 08:29:00,24.9,15.2,29.73,SW,227,2.0,7.0,66,0.00,,OVC085,0.00,171.00,VWS V14.01,2013-03-14 12:29:00,
2013-03-14 08:39:00,25.1,15.4,29.72,West,264,5.0,10.0,66,0.00,,OVC085,0.00,243.00,VWS V14.01,2013-03-14 12:39:00,
2013-03-14 08:49:00,24.9,14.5,29.72,WNW,286,3.0,14.0,64,0.00,,OVC085,0.00,334.00,VWS V14.01,2013-03-14 12:49:00,
2013-03-14 08:59:00,25.4,14.9,29.71,WSW,253,6.0,14.0,64,0.00,,OVC085,0.00,410.00,VWS V14.01,2013-03-14 12:59:00,
2013-03-14 09:09:00,25.5,14.7,29.71,WSW,257,4.0,14.0,63,0.00,,BKN090,0.00,454.00,VWS V14.01,2013-03-14 13:09:00,
2013-03-14 09:19:00,26.2,15.0,29.71,NW,307,4.0,14.0,62,0.00,,BKN090,0.00,489.00,VWS V14.01,2013-03-14 13:19:00,
2013-03-14 09:29:00,26.8,14.8,29.71,West,269,7.0,17.0,60,0.00,,BKN090,0.00,462.00,VWS V14.01,2013-03-14 13:29:00,
2013-03-14 09:39:00,26.9,14.1,29.71,WNW,292,6.0,13.0,58,0.00,,BKN090,0.00,501.00,VWS V14.01,2013-03-14 13:39:00,
2013-03-14 09:49:00,27.1,14.3,29.71,SW,218,4.0,14.0,58,0.00,,BKN070,0.00,550.00,VWS V14.01,2013-03-14 13:49:00,
2013-03-14 09:59:00,27.5,15.1,29.71,WNW,284,6.0,15.0,59,0.00,,BKN070,0.00,555.00,VWS V14.01,2013-03-14 13:59:00,
2013-03-14 10:09:00,27.4,15.4,29.71,West,279,9.0,16.0,60,0.00,,BKN070,0.00,596.00,VWS V14.01,2013-03-14 14:09:00,
2013-03-14 10:19:00,27.6,15.6,29.71,WNW,288,4.0,17.0,60,0.00,,BKN070,0.00,253.00,VWS V14.01,2013-03-14 14:19:00,
2013-03-14 10:29:00,26.7,14.7,29.71,WSW,240,10.0,13.0,60,0.00,,BKN070,0.00,297.00,VWS V14.01,2013-03-14 14:29:00,
2013-03-14 10:39:00,26.6,14.6,29.70,WNW,289,12.0,17.0,60,0.00,,BKN070,0.00,330.00,VWS V14.01,2013-03-14 14:39:00,
2013-03-14 10:49:00,26.9,14.1,29.70,WNW,283,13.0,16.0,58,0.00,,OVC090,0.00,761.00,VWS V14.01,2013-03-14 14:49:00,
2013-03-14 10:59:00,26.9,14.9,29.71,West,262,5.0,17.0,60,0.00,,OVC090,0.00,650.00,VWS V14.01,2013-03-14 14:59:00,
2013-03-14 11:09:00,26.7,13.9,29.70,West,275,6.0,13.0,58,0.00,,OVC090,0.00,417.00,VWS V14.01,2013-03-14 15:09:00,
2013-03-14 11:19:00,26.7,13.9,29.70,WNW,284,15.0,15.0,58,0.00,,OVC090,0.00,684.00,VWS V14.01,2013-03-14 15:19:00,
2013-03-14 11:29:00,26.8,13.6,29.70,WSW,246,5.0,20.0,57,0.00,,OVC090,0.00,506.00,VWS V14.01,2013-03-14 15:29:00,
2013-03-14 11:39:00,26.3,13.6,29.70,West,261,5.0,13.0,58,0.00,,OVC090,0.00,348.00,VWS V14.01,2013-03-14 15:39:00,
2013-03-14 11:49:00,26.2,13.8,29.70,West,281,5.0,16.0,59,0.00,,BKN080,0.00,496.00,VWS V14.01,2013-03-14 15:49:00,
2013-03-14 11:59:00,26.7,13.1,29.69,WNW,302,6.0,13.0,56,0.00,,BKN080,0.00,462.00,VWS V14.01,2013-03-14 15:59:00,
2013-03-14 12:09:00,25.9,12.4,29.69,West,269,5.0,17.0,56,0.00,,BKN080,0.00,466.00,VWS V14.01,2013-03-14 16:09:00,
2013-03-14 12:19:00,26.1,13.0,29.69,WNW,286,8.0,15.0,57,0.00,,BKN080,0.00,515.00,VWS V14.01,2013-03-14 16:19:00,
2013-03-14 12:29:00,26.2,13.4,29.69,WSW,242,8.0,18.0,58,0.00,,BKN080,0.00,461.00,VWS V14.01,2013-03-14 16:29:00,
2013-03-14 12:39:00,26.4,13.6,29.69,WNW,296,7.0,11.0,58,0.00,,BKN080,0.00,443.00,VWS V14.01,2013-03-14 16:39:00,
2013-03-14 12:49:00,26.4,12.8,29.68,WNW,291,5.0,19.0,56,0.00,,BKN080,0.00,404.00,VWS V14.01,2013-03-14 16:49:00,
2013-03-14 12:59:00,26.2,12.7,29.68,WNW,303,6.0,12.0,56,0.00,,BKN080,0.00,385.00,VWS V14.01,2013-03-14 16:59:00,
2013-03-14 13:09:00,25.8,12.7,29.68,West,274,8.0,20.0,57,0.00,,BKN080,0.00,287.00,VWS V14.01,2013-03-14 17:09:00,
2013-03-14 13:19:00,26.0,12.1,29.68,SW,232,8.0,17.0,55,0.00,,BKN080,0.00,311.00,VWS V14.01,2013-03-14 17:19:00,
2013-03-14 13:29:00,26.2,12.2,29.68,West,265,5.0,15.0,55,0.00,,BKN080,0.00,315.00,VWS V14.01,2013-03-14 17:29:00,
2013-03-14 13:39:00,26.2,13.1,29.67,West,271,4.0,14.0,57,0.00,,BKN080,0.00,262.00,VWS V14.01,2013-03-14 17:39:00,
2013-03-14 13:49:00,25.8,14.6,29.67,West,278,12.0,16.0,62,0.00,,OVC050,0.00,364.00,VWS V14.01,2013-03-14 17:49:00,
2013-03-14 13:59:00,25.9,14.3,29.67,West,264,6.0,14.0,61,0.00,,OVC050,0.00,578.00,VWS V14.01,2013-03-14 17:59:00,
2013-03-14 14:09:00,26.9,15.3,29.67,WNW,300,10.0,17.0,61,0.00,,OVC050,0.00,907.00,VWS V14.01,2013-03-14 18:09:00,
2013-03-14 14:19:00,26.7,15.4,29.67,WSW,243,7.0,15.0,62,0.00,,OVC050,0.00,844.00,VWS V14.01,2013-03-14 18:19:00,
2013-03-14 14:29:00,26.8,16.6,29.67,WSW,239,0.0,17.0,65,0.00,,OVC050,0.00,626.00,VWS V14.01,2013-03-14 18:29:00,
2013-03-14 14:39:00,27.0,16.1,29.67,West,271,6.0,18.0,63,0.00,,OVC050,0.00,626.00,VWS V14.01,2013-03-14 18:39:00,
2013-03-14 14:49:00,25.6,16.9,29.67,West,275,7.0,21.0,69,0.00,,OVC085,0.00,216.00,VWS V14.01,2013-03-14 18:49:00,
2013-03-14 14:59:00,25.2,15.1,29.67,West,272,4.0,23.0,65,0.00,,OVC085,0.00,220.00,VWS V14.01,2013-03-14 18:59:00,
2013-03-14 15:09:00,25.3,14.5,29.67,NW,306,5.0,18.0,63,0.00,,OVC085,0.00,468.00,VWS V14.01,2013-03-14 19:09:00,
2013-03-14 15:19:00,25.7,13.0,29.67,West,275,7.0,16.0,58,0.00,,OVC085,0.00,413.00,VWS V14.01,2013-03-14 19:19:00,
2013-03-14 15:29:00,26.1,11.7,29.67,West,275,4.0,13.0,54,0.00,,OVC085,0.00,302.00,VWS V14.01,2013-03-14 19:29:00,
2013-03-14 15:39:00,25.7,13.0,29.67,West,276,6.0,17.0,58,0.00,,OVC085,0.00,211.00,VWS V14.01,2013-03-14 19:39:00,
2013-03-14 15:49:00,24.4,15.0,29.67,West,269,8.0,22.0,67,0.00,,OVC080,0.00,107.00,VWS V14.01,2013-03-14 19:49:00,
2013-03-14 15:59:00,24.4,14.0,29.67,West,277,3.0,17.0,64,0.00,,OVC080,0.00,239.00,VWS V14.01,2013-03-14 19:59:00,
2013-03-14 16:09:00,25.0,12.7,29.67,West,259,2.0,21.0,59,0.00,,OVC080,0.00,378.00,VWS V14.01,2013-03-14 20:09:00,
2013-03-14 16:19:00,26.3,12.8,29.67,WNW,288,5.0,19.0,56,0.00,,OVC080,0.00,427.00,VWS V14.01,2013-03-14 20:19:00,
2013-03-14 16:29:00,26.4,12.8,29.68,West,281,6.0,18.0,56,0.00,,OVC080,0.00,165.00,VWS V14.01,2013-03-14 20:29:00,
2013-03-14 16:39:00,26.2,12.2,29.68,WSW,248,5.0,14.0,55,0.00,,OVC080,0.00,359.00,VWS V14.01,2013-03-14 20:39:00,
2013-03-14 16:49:00,25.9,12.4,29.68,West,265,3.0,18.0,56,0.00,,BKN080,0.00,315.00,VWS V14.01,2013-03-14 20:49:00,
2013-03-14 16:59:00,25.0,13.1,29.68,WNW,283,4.0,19.0,60,0.00,,BKN080,0.00,188.00,VWS V14.01,2013-03-14 20:59:00,
2013-03-14 17:09:00,24.5,12.2,29.69,West,269,6.0,20.0,59,0.00,,BKN080,0.00,206.00,VWS V14.01,2013-03-14 21:09:00,
2013-03-14 17:19:00,24.4,11.4,29.69,West,281,12.0,20.0,57,0.00,,BKN080,0.00,116.00,VWS V14.01,2013-03-14 21:19:00,
2013-03-14 17:29:00,23.8,11.2,29.70,WNW,298,6.0,18.0,58,0.00,,BKN080,0.00,188.00,VWS V14.01,2013-03-14 21:29:00,
2013-03-14 17:39:00,23.4,9.6,29.70,NW,310,8.0,19.0,55,0.00,,BKN080,0.00,84.00,VWS V14.01,2013-03-14 21:39:00,
2013-03-14 17:49:00,22.8,9.1,29.70,WNW,300,10.0,19.0,55,0.00,,SCT075,0.00,76.00,VWS V14.01,2013-03-14 21:49:00,
2013-03-14 17:59:00,22.3,8.6,29.71,WNW,295,5.0,23.0,55,0.00,,SCT075,0.00,72.00,VWS V14.01,2013-03-14 21:59:00,
2013-03-14 18:09:00,22.1,8.8,29.72,WNW,300,7.0,19.0,56,0.00,,SCT075,0.00,62.00,VWS V14.01,2013-03-14 22:09:00,
2013-03-14 18:19:00,21.5,8.2,29.73,WNW,298,11.0,28.0,56,0.00,,SCT075,0.00,58.00,VWS V14.01,2013-03-14 22:19:00,
2013-03-14 18:29:00,21.1,7.9,29.73,WNW,298,6.0,19.0,56,0.00,,SCT075,0.00,33.00,VWS V14.01,2013-03-14 22:29:00,
2013-03-14 18:39:00,20.4,8.4,29.74,WNW,296,9.0,23.0,59,0.00,,SCT075,0.00,18.00,VWS V14.01,2013-03-14 22:39:00,
2013-03-14 18:49:00,19.7,7.7,29.75,WNW,298,6.0,22.0,59,0.00,,SCT070,0.00,5.00,VWS V14.01,2013-03-14 22:49:00,
2013-03-14 18:59:00,19.5,8.3,29.76,WNW,299,8.0,20.0,61,0.00,,SCT070,0.00,0.00,VWS V14.01,2013-03-14 22:59:00,
2013-03-14 19:09:00,18.9,9.1,29.77,West,271,13.0,20.0,65,0.00,,SCT070,0.00,0.00,VWS V14.01,2013-03-14 23:09:00,
2013-03-14 19:19:00,18.4,9.6,29.77,West,279,5.0,19.0,68,0.00,,SCT070,0.00,0.00,VWS V14.01,2013-03-14 23:19:00,
2013-03-14 19:29:00,18.0,10.2,29.77,West,263,5.0,17.0,71,0.00,,SCT070,0.00,0.00,VWS V14.01,2013-03-14 23:29:00,
2013-03-14 19:39:00,17.9,9.8,29.78,West,273,6.0,20.0,70,0.00,,SCT070,0.00,0.00,VWS V14.01,2013-03-14 23:39:00,
2013-03-14 19:49:00,17.8,10.0,29.78,NW,309,4.0,13.0,71,0.00,,SCT055,0.00,0.00,VWS V14.01,2013-03-14 23:49:00,
2013-03-14 19:59:00,17.8,8.7,29.78,WNW,302,7.0,19.0,67,0.00,,SCT055,0.00,0.00,VWS V14.01,2013-03-14 23:59:00,
2013-03-14 20:09:00,17.5,7.1,29.79,WNW,290,11.0,17.0,63,0.00,,SCT055,0.00,0.00,VWS V14.01,2013-03-15 00:09:00,
2013-03-14 20:19:00,17.3,6.5,29.79,West,272,6.0,18.0,62,0.00,,BKN042,0.00,0.00,VWS V14.01,2013-03-15 00:19:00,
2013-03-14 20:29:00,17.1,6.7,29.79,WNW,290,9.0,22.0,63,0.00,,BKN042,0.00,0.00,VWS V14.01,2013-03-15 00:29:00,
2013-03-14 20:39:00,17.0,6.6,29.80,WNW,294,11.0,18.0,63,0.00,,BKN042,0.00,0.00,VWS V14.01,2013-03-15 00:39:00,
2013-03-14 20:49:00,16.6,6.6,29.79,NW,315,14.0,16.0,64,0.00,,BKN042,0.00,0.00,VWS V14.01,2013-03-15 00:49:00,
2013-03-14 20:59:00,16.4,6.4,29.80,NW,304,10.0,16.0,64,0.00,,BKN042,0.00,0.00,VWS V14.01,2013-03-15 00:59:00,
2013-03-14 21:09:00,16.3,6.3,29.80,WNW,292,4.0,24.0,64,0.00,,BKN042,0.00,0.00,VWS V14.01,2013-03-15 01:09:00,
2013-03-14 21:19:00,16.2,5.8,29.80,NW,309,6.0,17.0,63,0.00,,BKN042,0.00,0.00,VWS V14.01,2013-03-15 01:19:00,
2013-03-14 21:29:00,15.9,5.6,29.80,WNW,296,17.0,19.0,63,0.00,,BKN042,0.00,0.00,VWS V14.01,2013-03-15 01:29:00,
2013-03-14 21:39:00,15.7,5.0,29.80,WNW,293,7.0,17.0,62,0.00,,BKN042,0.00,0.00,VWS V14.01,2013-03-15 01:39:00,
2013-03-14 21:49:00,15.6,4.9,29.80,NW,316,12.0,19.0,62,0.00,,BKN042,0.00,0.00,VWS V14.01,2013-03-15 01:49:00,
2013-03-14 21:59:00,15.5,4.8,29.80,NW,313,7.0,18.0,62,0.00,,BKN042,0.00,0.00,VWS V14.01,2013-03-15 01:59:00,
2013-03-14 22:09:00,15.5,5.2,29.80,NW,313,10.0,18.0,63,0.00,,BKN042,0.00,0.00,VWS V14.01,2013-03-15 02:09:00,
2013-03-14 22:19:00,15.5,5.2,29.80,NW,313,8.0,15.0,63,0.00,,BKN042,0.00,0.00,VWS V14.01,2013-03-15 02:19:00,
2013-03-14 22:29:00,15.4,5.4,29.79,NW,306,8.0,19.0,64,0.00,,BKN042,0.00,0.00,VWS V14.01,2013-03-15 02:29:00,
2013-03-14 22:39:00,15.3,5.0,29.80,WNW,297,4.0,17.0,63,0.00,,BKN042,0.00,0.00,VWS V14.01,2013-03-15 02:39:00,
2013-03-14 22:49:00,15.3,5.7,29.79,WNW,300,3.0,16.0,65,0.00,,SCT095,0.00,0.00,VWS V14.01,2013-03-15 02:49:00,
2013-03-14 22:59:00,15.2,5.2,29.80,NW,325,12.0,16.0,64,0.00,,SCT095,0.00,0.00,VWS V14.01,2013-03-15 02:59:00,
2013-03-14 23:09:00,15.1,5.5,29.79,WNW,298,8.0,18.0,65,0.00,,SCT095,0.00,0.00,VWS V14.01,2013-03-15 03:09:00,
2013-03-14 23:19:00,15.0,5.7,29.80,NW,304,6.0,16.0,66,0.00,,SCT095,0.00,0.00,VWS V14.01,2013-03-15 03:19:00,
2013-03-14 23:29:00,14.9,5.9,29.80,WNW,291,2.0,10.0,67,0.00,,SCT095,0.00,0.00,VWS V14.01,2013-03-15 03:29:00,
2013-03-14 23:39:00,14.8,6.2,29.79,WNW,302,2.0,18.0,68,0.00,,SCT095,0.00,0.00,VWS V14.01,2013-03-15 03:39:00,
2013-03-14 23:49:00,14.7,5.8,29.79,NW,308,11.0,21.0,67,0.00,,CLR,0.00,0.00,VWS V14.01,2013-03-15 03:49:00,
2013-03-14 23:59:00,14.6,6.0,29.79,NW,306,6.0,16.0,68,0.00,,CLR,0.00,0.00,VWS V14.01,2013-03-15 03:59:00,